Main page
METAR-TAF:

METAR-TAF

Airports :

Cascavel Airport

Cascavel, Paraná, Brazil

latitude: 25-00-08S, longitude: 53-30-07W, elevation: 754 m

Current weather observation

The report was made 1 hour and 12 minutes ago, at 16:00 UTC
Wind 14 kt from the North/Northwest
Temperature 28°C
Humidity 55%
Pressure 1014 hPa
Visibility 10 km or more
Scattered clouds at a height of 3000 ft

METAR: SBCA 251600Z 33014KT 9999 SCT030 28/18 Q1014

Time: 14:12 (17:12 UTC)


TAF: missing

Weather observations and forecasts of more than 4000 airports (METAR and TAF reports).

The available stations are represented by yellow and red dots on the map.

Hover mouse over dot to see the name of the station.

Then click to see weather observations and forecasts.

To change the map : click on the green buttons with a black cross to zoom in, on the green button with a dash to zoom out, or on the green arrows for adjacent maps.


METAR-TAF: